createdAt,value
2022-08-21T00:00:42.324Z,78.11
2022-08-21T00:05:41.405Z,78.14
2022-08-21T00:10:41.488Z,78.19
2022-08-21T00:15:41.439Z,78.30
2022-08-21T00:20:42.512Z,78.59
2022-08-21T00:25:42.462Z,78.78
2022-08-21T00:30:42.441Z,78.96
2022-08-21T00:35:42.441Z,79.01
2022-08-21T00:40:42.464Z,79.21
2022-08-21T00:45:42.461Z,79.23
2022-08-21T00:50:42.528Z,79.37
2022-08-21T00:55:42.453Z,79.34
2022-08-21T01:00:42.527Z,79.39
2022-08-21T01:05:42.489Z,79.59
2022-08-21T01:10:42.497Z,79.62
2022-08-21T01:15:42.477Z,79.48
2022-08-21T01:20:42.635Z,79.44
2022-08-21T01:25:43.102Z,79.35
2022-08-21T01:30:43.855Z,79.36
2022-08-21T01:35:43.584Z,79.18
2022-08-21T01:40:43.493Z,79.05
2022-08-21T01:45:43.553Z,79.17
2022-08-21T01:50:43.653Z,79.29
2022-08-21T01:55:43.508Z,79.37
2022-08-21T02:00:44.087Z,79.43
2022-08-21T02:05:44.497Z,79.54
2022-08-21T02:10:49.078Z,79.73
2022-08-21T02:15:46.546Z,80.08
2022-08-21T02:20:46.560Z,80.37
2022-08-21T02:25:46.577Z,80.48
2022-08-21T02:30:46.540Z,80.62
2022-08-21T02:35:46.543Z,80.82
2022-08-21T02:40:47.938Z,81.06
2022-08-21T02:45:48.560Z,81.26
2022-08-21T02:50:48.631Z,81.37
2022-08-21T02:55:48.561Z,81.33
2022-08-21T03:00:48.563Z,81.36
2022-08-21T03:05:48.568Z,81.22
2022-08-21T03:10:48.556Z,81.12
2022-08-21T03:15:48.567Z,81.15
2022-08-21T03:20:49.653Z,81.32
2022-08-21T03:25:49.991Z,81.39
2022-08-21T03:30:49.573Z,81.54
2022-08-21T03:35:49.663Z,81.60
2022-08-21T03:40:49.587Z,81.58
2022-08-21T03:45:49.652Z,81.67
2022-08-21T03:50:51.645Z,81.66
2022-08-21T03:55:53.063Z,81.65
2022-08-21T04:00:52.603Z,81.83
2022-08-21T04:05:52.603Z,81.83
2022-08-21T04:10:52.617Z,81.83
2022-08-21T04:15:52.629Z,81.93
2022-08-21T04:20:52.609Z,81.95
2022-08-21T04:25:52.718Z,81.93
2022-08-21T04:30:52.707Z,81.98
2022-08-21T04:35:52.651Z,82.06
2022-08-21T04:40:52.842Z,82.00
2022-08-21T04:45:52.640Z,81.92
2022-08-21T04:50:52.647Z,81.72
2022-08-21T04:55:53.507Z,81.64
2022-08-21T05:00:53.649Z,81.54
2022-08-21T05:05:53.635Z,81.55
2022-08-21T05:10:58.237Z,81.37
2022-08-21T05:15:56.274Z,81.19
2022-08-21T05:20:57.538Z,81.03
2022-08-21T05:25:58.033Z,80.76
2022-08-21T05:30:58.653Z,80.63
2022-08-21T05:35:58.954Z,80.35
2022-08-21T05:40:58.766Z,80.00
2022-08-21T05:45:58.675Z,79.66
2022-08-21T05:50:58.733Z,79.21
2022-08-21T05:55:58.703Z,78.76
2022-08-21T06:00:59.557Z,78.47
2022-08-21T06:05:59.697Z,78.18
2022-08-21T06:10:59.697Z,77.90
2022-08-21T06:15:59.737Z,77.51
2022-08-21T06:20:59.725Z,77.06
2022-08-21T06:26:00.694Z,76.59
2022-08-21T06:31:00.796Z,76.23
2022-08-21T06:36:01.244Z,75.85
2022-08-21T06:41:00.980Z,75.29
2022-08-21T06:46:02.710Z,73.99
2022-08-21T06:51:03.148Z,66.63
2022-08-21T06:56:02.735Z,61.31
2022-08-21T07:01:02.863Z,57.60
2022-08-21T07:06:02.783Z,54.41
2022-08-21T07:11:02.741Z,50.28
2022-08-21T07:16:04.264Z,46.54
2022-08-21T07:21:04.787Z,43.99
2022-08-21T07:26:04.770Z,40.95
2022-08-21T07:31:04.841Z,37.89
2022-08-21T07:36:05.048Z,36.33
2022-08-21T07:41:04.756Z,34.34
2022-08-21T07:46:04.811Z,32.31
2022-08-21T07:51:04.773Z,31.15
2022-08-21T07:56:05.187Z,30.44
2022-08-21T08:01:04.992Z,29.25
2022-08-21T08:06:05.259Z,27.95
2022-08-21T08:11:05.109Z,26.95
2022-08-21T08:16:04.789Z,24.87
2022-08-21T08:21:07.792Z,22.83
2022-08-21T08:26:07.933Z,23.60
2022-08-21T08:31:07.879Z,22.96
2022-08-21T08:36:08.311Z,21.89
2022-08-21T08:41:08.815Z,19.97
2022-08-21T08:46:08.877Z,19.74
2022-08-21T08:51:09.321Z,18.98
2022-08-21T08:56:08.933Z,18.37
2022-08-21T09:01:08.956Z,18.53
2022-08-21T09:06:08.948Z,18.21
2022-08-21T09:11:12.047Z,18.42
2022-08-21T09:16:11.846Z,17.14
2022-08-21T09:21:11.880Z,18.50
2022-08-21T09:26:12.532Z,20.09
2022-08-21T09:31:13.053Z,18.76
2022-08-21T09:36:12.897Z,18.43
2022-08-21T09:41:12.949Z,17.34
2022-08-21T09:46:13.006Z,17.02
2022-08-21T09:51:12.880Z,17.48
2022-08-21T09:56:31.194Z,20.69
2022-08-21T10:01:31.086Z,17.96
2022-08-21T10:06:31.123Z,17.32
2022-08-21T10:11:30.896Z,16.98
2022-08-21T10:16:30.952Z,17.29
2022-08-21T10:21:30.907Z,17.71
2022-08-21T10:26:31.140Z,18.11
2022-08-21T10:31:31.003Z,18.86
2022-08-21T10:36:31.614Z,18.83
2022-08-21T10:41:32.033Z,20.05
2022-08-21T10:46:31.947Z,21.79
2022-08-21T10:51:31.993Z,23.14
2022-08-21T10:56:32.119Z,24.52
2022-08-21T11:01:33.097Z,25.80
2022-08-21T11:06:33.877Z,26.80
2022-08-21T11:11:35.872Z,27.56
2022-08-21T11:16:35.960Z,28.27
2022-08-21T11:21:35.969Z,28.94
2022-08-21T11:26:36.084Z,29.38
2022-08-21T11:31:36.120Z,30.21
2022-08-21T11:36:35.976Z,31.05
2022-08-21T11:41:35.995Z,31.82
2022-08-21T11:46:35.993Z,32.36
2022-08-21T11:51:36.016Z,33.01
2022-08-21T11:56:36.026Z,34.07
2022-08-21T12:01:36.252Z,34.54
2022-08-21T12:06:36.262Z,35.37
2022-08-21T12:11:36.072Z,35.90
2022-08-21T12:16:37.082Z,36.57
2022-08-21T12:21:37.122Z,36.91
2022-08-21T12:26:40.123Z,37.56
2022-08-21T12:31:40.132Z,37.80
2022-08-21T12:36:40.095Z,38.28
2022-08-21T12:41:40.147Z,38.41
2022-08-21T12:46:40.093Z,38.92
2022-08-21T12:51:40.096Z,39.19
2022-08-21T12:56:40.436Z,39.31
2022-08-21T13:01:41.976Z,39.73
2022-08-21T13:06:42.523Z,39.63
2022-08-21T13:11:42.404Z,39.54
2022-08-21T13:16:43.161Z,39.52
2022-08-21T13:21:47.081Z,39.31
2022-08-21T13:26:47.135Z,38.94
2022-08-21T13:31:47.230Z,38.63
2022-08-21T13:36:47.872Z,38.44
2022-08-21T13:41:48.155Z,38.44
2022-08-21T13:46:48.420Z,38.17
2022-08-21T13:51:48.241Z,38.31
2022-08-21T13:56:48.276Z,38.72
2022-08-21T14:01:48.316Z,38.80
2022-08-21T14:06:49.029Z,38.55
2022-08-21T14:11:49.440Z,38.64
2022-08-21T14:16:49.531Z,38.65
2022-08-21T14:21:49.142Z,38.65
2022-08-21T14:26:49.237Z,38.94
2022-08-21T14:31:49.947Z,38.98
2022-08-21T14:36:51.371Z,38.70
2022-08-21T14:41:51.247Z,39.14
2022-08-21T14:46:56.097Z,39.31
2022-08-21T14:51:55.216Z,39.56
2022-08-21T14:56:55.771Z,39.96
2022-08-21T15:01:56.871Z,39.79
2022-08-21T15:06:57.271Z,39.94
2022-08-21T15:11:57.524Z,40.37
2022-08-21T15:16:57.258Z,40.15
2022-08-21T15:21:57.272Z,40.39
2022-08-21T15:26:57.360Z,40.65
2022-08-21T15:31:57.301Z,40.65
2022-08-21T15:36:57.461Z,40.74
2022-08-21T15:41:57.209Z,41.33
2022-08-21T15:46:57.227Z,41.41
2022-08-21T15:51:58.294Z,41.70
2022-08-21T15:56:58.218Z,41.81
2022-08-21T16:01:58.371Z,42.10
2022-08-21T16:07:04.340Z,42.08
2022-08-21T16:12:00.509Z,42.18
2022-08-21T16:17:00.198Z,42.31
2022-08-21T16:22:00.246Z,42.45
2022-08-21T16:27:00.238Z,42.77
2022-08-21T16:32:02.267Z,43.06
2022-08-21T16:37:02.230Z,43.20
2022-08-21T16:42:02.277Z,43.35
2022-08-21T16:47:02.352Z,43.73
2022-08-21T16:52:02.263Z,44.17
2022-08-21T16:57:02.260Z,44.20
2022-08-21T17:02:03.068Z,44.31
2022-08-21T17:07:03.264Z,44.41
2022-08-21T17:12:03.263Z,44.38
2022-08-21T17:17:03.372Z,44.29
2022-08-21T17:22:03.272Z,44.22
2022-08-21T17:27:03.307Z,44.10
2022-08-21T17:32:03.386Z,43.92
2022-08-21T17:37:03.383Z,43.97
2022-08-21T17:42:03.303Z,43.96
2022-08-21T17:47:03.316Z,44.11
2022-08-21T17:52:03.308Z,44.42
2022-08-21T17:57:03.375Z,44.71
2022-08-21T18:02:03.626Z,45.15
2022-08-21T18:07:03.529Z,45.60
2022-08-21T18:12:05.140Z,45.94
2022-08-21T18:17:05.367Z,46.38
2022-08-21T18:22:07.316Z,46.67
2022-08-21T18:27:09.588Z,47.22
2022-08-21T18:32:31.266Z,47.56
2022-08-21T18:37:11.460Z,47.97
2022-08-21T18:42:11.333Z,48.32
2022-08-21T18:47:11.474Z,48.99
2022-08-21T18:52:17.809Z,49.56
2022-08-21T18:57:14.371Z,49.71
2022-08-21T19:02:15.887Z,49.99
2022-08-21T19:07:15.737Z,50.24
2022-08-21T19:12:15.379Z,51.46
2022-08-21T19:17:15.449Z,51.90
2022-08-21T19:22:15.440Z,52.42
2022-08-21T19:27:17.753Z,53.02
2022-08-21T19:32:17.547Z,53.33
2022-08-21T19:37:20.022Z,53.63
2022-08-21T19:42:21.583Z,54.22
2022-08-21T19:47:21.449Z,54.39
2022-08-21T19:52:23.433Z,55.18
2022-08-21T19:57:24.396Z,55.59
2022-08-21T20:02:24.629Z,55.43
2022-08-21T20:07:25.156Z,55.86
2022-08-21T20:12:26.547Z,56.21
2022-08-21T20:17:26.518Z,56.59
2022-08-21T20:22:26.667Z,56.44
2022-08-21T20:27:26.485Z,56.35
2022-08-21T20:32:27.483Z,56.45
2022-08-21T20:42:31.471Z,56.55
2022-08-21T20:47:32.430Z,56.97
2022-08-21T20:52:32.439Z,57.38
2022-08-21T20:57:32.495Z,57.57
2022-08-21T21:02:33.491Z,57.32
2022-08-21T21:07:33.545Z,57.43
2022-08-21T21:12:33.534Z,57.54
2022-08-21T21:17:33.480Z,58.18
2022-08-21T21:22:33.842Z,58.15
2022-08-21T21:27:34.858Z,58.07
2022-08-21T21:32:35.624Z,57.99
2022-08-21T21:37:37.493Z,58.62
2022-08-21T21:42:37.537Z,58.66
2022-08-21T21:47:37.830Z,59.11
2022-08-21T21:52:38.623Z,59.21
2022-08-21T21:57:38.588Z,59.23
2022-08-21T22:02:38.554Z,59.37
2022-08-21T22:07:40.022Z,59.49
2022-08-21T22:17:42.524Z,59.56
2022-08-21T22:22:43.890Z,59.47
2022-08-21T22:27:45.740Z,59.24
2022-08-21T22:32:46.055Z,59.12
2022-08-21T22:37:47.657Z,59.15
2022-08-21T22:42:47.624Z,59.13
2022-08-21T22:47:48.325Z,59.10
2022-08-21T22:52:48.913Z,59.73
2022-08-21T22:57:50.009Z,59.50
2022-08-21T23:07:56.596Z,59.85
2022-08-21T23:12:57.697Z,59.93
2022-08-21T23:18:00.537Z,60.04
2022-08-21T23:23:00.589Z,60.28
2022-08-21T23:28:00.803Z,60.61
2022-08-21T23:33:02.838Z,61.15
2022-08-21T23:38:02.561Z,61.30
2022-08-21T23:43:04.621Z,61.68
2022-08-21T23:48:04.659Z,62.64
2022-08-21T23:53:08.904Z,63.15
2022-08-21T23:58:06.671Z,63.45
